Terminal Aerodrome Forecast
Issued by NWS

Home | Current Version | Previous Version | Text Only | Print | Product List | Glossary On
Versions: 1 2 3 4 5 6 7 8 9 10 11 12 13 14 15 16 17
279
FTUS46 KPDT 131725
TAFPSC
TAF
KPSC 131725Z 1318/1418 24011KT P6SM BKN120
     FM132300 23011KT P6SM SCT060 OVC090
     FM140600 22011KT P6SM VCSH OVC060
     FM140700 21010KT P6SM -SHRA SCT030 OVC050
     FM141500 22009KT P6SM OVC070=

USA.gov is the U.S. government's official web portal to all federal, state and local government web resources and services.